Will Rogers World Airport
KOKC : rendu visible

Aérodrome :











RETROUVEZ-NOUS SUR...

 
LOGIN :

S'inscrire | Disclaimer

   EN    FR    IT 

 









Légende :    VFR   VFR Marginal   IFR   IFR Intensif   IFR Très Intensif
Visi : 
Plafond : 
>= 8 km
>= 3000ft
5 à 8 km
1000 à 3000 ft
1500m à 5 km
500 à 1000 ft
800 à 1500m
200 à 500 ft
< 800m
< 200 ft
Symboles :   Orages  Brouillard  Fortes neiges  Fortes précipitations  Vent > 20 kt






- Altitude de l'aérodrome : 1295 ft
- Code IATA : OKC


KOKC - Will Rogers World

DERNIER METAR :
  • 162352Z 16009KT 10SM BKN200 OVC250 12/01 A3002 RMK AO2 SLP167 T01170006 10172 20117 55003

METARs EXPIRÉS :
  • 162252Z 17013KT 10SM SCT200 BKN250 14/00 A3000 RMK AO2 SLP160 T01390000
  • 162152Z 16015G24KT 10SM FEW200 BKN250 16/M01 A3000 RMK AO2 SLP161 T01561006

TAF KOKC
Valide du 17 à 00h jusqu'au 18 à 00h UTC


162326Z 1700/1724 16010KT P6SM BKN150
FM171300 35011KT P6SM FEW060



MET'MAP, la Météo Aéronautique d'un coup d'oeil ! - Copyright ORBIFLY Décembre 2007 - Disclaimer

ORBIFLY MET'MAP TEAM :

Programmation & Développement : Alexandra Zaïnal
Conception & Développement : Baudouin d'Aumeries
Co-Programmation & Développement : Marc-Olivier Méhu
Soutien technique & logistique : Manuel Goepfert

Contact : metmap@orbifly.com




SOURCES & CREDITS :

   NOAA       Earth
Advisory